Time;durP1;ratioP1;P1;durP2;ratioP2;P2;SDS_P1;SDS_P2;PMS_P1;PMS_P2;Temp;Humidity;BMP_temperature;BMP_pressure;BME280_temperature;BME280_humidity;BME280_pressure;Samples;Min_cycle;Max_cycle;Signal;HPM_P1;HPM_P2
2022/11/25 00:01:14;;;;;;;12.85;7.00;;;;;;;2.17;100.00;96544.47;5048533;28;20494;-67
2022/11/25 00:03:41;;;;;;;10.85;6.85;;;;;;;2.09;100.00;96538.75;5046822;28;20065;-68
2022/11/25 00:06:18;;;;;;;11.10;6.97;;;;;;;2.07;100.00;96534.75;5039791;28;20083;-68
2022/11/25 00:08:45;;;;;;;14.63;6.78;;;;;;;2.08;100.00;96539.06;5048980;28;20040;-68
2022/11/25 00:11:12;;;;;;;11.98;7.13;;;;;;;1.96;100.00;96536.94;5049519;28;20402;-67
2022/11/25 00:13:39;;;;;;;13.88;7.55;;;;;;;1.70;100.00;96534.97;5044799;28;20124;-66
2022/11/25 00:16:07;;;;;;;15.85;7.57;;;;;;;1.79;100.00;96529.63;5017928;28;20121;-65
2022/11/25 00:18:33;;;;;;;13.05;7.57;;;;;;;1.86;100.00;96521.06;5041379;28;20390;-68
2022/11/25 00:21:04;;;;;;;13.15;7.18;;;;;;;1.94;100.00;96527.59;5041809;28;20045;-69
2022/11/25 00:23:29;;;;;;;14.13;7.10;;;;;;;1.88;100.00;96524.25;5002911;28;20071;-66
2022/11/25 00:25:55;;;;;;;12.82;7.22;;;;;;;1.93;100.00;96532.19;5040452;28;20064;-68
2022/11/25 00:28:20;;;;;;;11.88;7.10;;;;;;;1.93;100.00;96529.50;5035444;28;20033;-68
2022/11/25 00:30:45;;;;;;;12.77;7.38;;;;;;;1.92;100.00;96536.00;5041196;28;20033;-69
2022/11/25 00:33:11;;;;;;;13.75;6.85;;;;;;;1.88;100.00;96535.84;5018656;28;20029;-69
2022/11/25 00:35:36;;;;;;;13.55;7.65;;;;;;;1.86;100.00;96540.75;5043000;28;20105;-69
2022/11/25 00:38:02;;;;;;;13.60;7.13;;;;;;;1.71;100.00;96538.47;5045059;28;20037;-67
2022/11/25 00:40:27;;;;;;;9.95;6.90;;;;;;;1.75;100.00;96541.34;5052122;28;20094;-68
2022/11/25 00:45:36;;;;;;;10.10;6.25;;;;;;;1.92;100.00;96557.59;5041149;28;20453;-67
2022/11/25 00:48:02;;;;;;;13.43;6.70;;;;;;;1.84;100.00;96563.78;5022306;28;20068;-65
2022/11/25 00:50:27;;;;;;;10.85;6.60;;;;;;;1.81;100.00;96581.41;5037430;28;20106;-68
2022/11/25 00:52:53;;;;;;;12.15;7.60;;;;;;;1.73;100.00;96568.69;5041628;28;20041;-68
2022/11/25 00:55:18;;;;;;;11.35;6.68;;;;;;;1.59;100.00;96590.38;5035786;28;20124;-66
2022/11/25 00:57:43;;;;;;;10.90;7.32;;;;;;;1.65;100.00;96588.34;5040762;28;20076;-68
2022/11/25 01:00:10;;;;;;;9.55;6.40;;;;;;;1.82;100.00;96583.00;5017406;28;20051;-67
2022/11/25 01:02:36;;;;;;;11.30;5.90;;;;;;;1.98;100.00;96579.88;5023141;28;20037;-68
2022/11/25 01:05:01;;;;;;;11.93;7.22;;;;;;;2.00;100.00;96585.75;5041985;28;20106;-68
2022/11/25 01:07:26;;;;;;;11.68;6.57;;;;;;;2.04;100.00;96579.41;5036147;28;20037;-66
2022/11/25 01:09:52;;;;;;;11.73;5.80;;;;;;;1.98;100.00;96583.38;5041038;28;20577;-68
2022/11/25 01:12:17;;;;;;;11.38;5.68;;;;;;;2.07;100.00;96596.88;5016203;28;20044;-68
2022/11/25 01:14:43;;;;;;;12.40;6.05;;;;;;;1.95;100.00;96608.31;5042496;28;20033;-69
2022/11/25 01:17:08;;;;;;;11.20;6.40;;;;;;;1.95;100.00;96613.72;5036578;28;20047;-69
2022/11/25 01:19:38;;;;;;;11.32;5.53;;;;;;;2.09;100.00;96611.69;5041960;28;20073;-69
2022/11/25 01:22:04;;;;;;;11.88;5.30;;;;;;;2.19;100.00;96612.50;5021568;28;20080;-67
2022/11/25 01:24:30;;;;;;;11.52;5.10;;;;;;;2.05;100.00;96613.44;5038011;28;20071;-68
2022/11/25 01:26:55;;;;;;;10.35;5.22;;;;;;;2.03;100.00;96623.72;5039596;28;20049;-66
2022/11/25 01:29:21;;;;;;;10.48;5.00;;;;;;;2.04;100.00;96616.44;5034872;28;20045;-67
2022/11/25 01:31:47;;;;;;;7.35;4.47;;;;;;;2.05;100.00;96626.94;5039494;28;20486;-68
2022/11/25 01:34:14;;;;;;;8.50;4.90;;;;;;;2.25;100.00;96630.16;5035905;28;20101;-68
2022/11/25 01:36:39;;;;;;;8.15;4.45;;;;;;;2.26;100.00;96626.34;5041080;28;20047;-67
2022/11/25 01:39:05;;;;;;;8.00;4.20;;;;;;;2.48;100.00;96628.13;5036791;28;20041;-66
2022/11/25 01:41:33;;;;;;;8.90;4.38;;;;;;;2.47;100.00;96635.47;5053382;28;20780;-69
2022/11/25 01:44:04;;;;;;;7.70;3.85;;;;;;;2.46;100.00;96636.56;5041665;28;20041;-68
2022/11/25 01:46:44;;;;;;;6.60;3.90;;;;;;;2.44;100.00;96636.09;5022613;28;20528;-69
2022/11/25 01:49:16;;;;;;;5.80;3.45;;;;;;;2.44;100.00;96635.28;5036611;28;20394;-69
2022/11/25 01:51:52;;;;;;;14.63;4.70;;;;;;;2.49;100.00;96627.03;5038153;28;20131;-70
2022/11/25 01:54:21;;;;;;;6.80;3.28;;;;;;;2.51;100.00;96613.22;5032775;28;20086;-69
2022/11/25 01:56:57;;;;;;;10.13;3.85;;;;;;;2.43;100.00;96625.59;5022743;28;20036;-68
2022/11/25 01:59:24;;;;;;;5.78;3.63;;;;;;;2.25;100.00;96630.16;5035858;28;20113;-67
2022/11/25 02:01:49;;;;;;;6.80;4.03;;;;;;;2.22;100.00;96633.50;5042630;28;20110;-68
2022/11/25 02:04:17;;;;;;;7.45;3.92;;;;;;;2.16;100.00;96621.22;5048820;28;20041;-68
2022/11/25 02:06:51;;;;;;;7.57;4.15;;;;;;;2.06;100.00;96623.13;5041208;28;20049;-69
2022/11/25 02:09:20;;;;;;;7.50;4.00;;;;;;;2.04;100.00;96624.56;5017439;28;20037;-71
2022/11/25 02:11:46;;;;;;;9.07;4.32;;;;;;;1.73;100.00;96611.88;5040346;28;20073;-70
2022/11/25 02:14:15;;;;;;;9.38;5.25;;;;;;;1.30;100.00;96598.97;5017456;28;20187;-69
2022/11/25 02:16:41;;;;;;;10.23;5.30;;;;;;;1.03;100.00;96597.22;5039639;28;20060;-69
2022/11/25 02:19:30;;;;;;;8.95;5.10;;;;;;;0.99;100.00;96605.13;5035009;28;20511;-69
2022/11/25 02:22:02;;;;;;;8.27;5.13;;;;;;;1.06;100.00;96596.59;5015623;28;20037;-69
2022/11/25 02:24:42;;;;;;;11.65;5.25;;;;;;;1.09;100.00;96585.19;5036116;28;20404;-69
2022/11/25 02:27:07;;;;;;;;;;;;;;;1.11;100.00;96594.56;5033907;28;20198;-69
2022/11/25 02:29:33;;;;;;;9.30;5.43;;;;;;;1.23;100.00;96596.69;5035647;28;20296;-69
2022/11/25 02:31:59;;;;;;;11.75;5.47;;;;;;;1.25;100.00;96593.69;5041148;28;20067;-69
2022/11/25 02:34:24;;;;;;;8.52;5.28;;;;;;;1.45;100.00;96601.25;5036441;28;20048;-68
2022/11/25 02:36:51;;;;;;;9.13;4.95;;;;;;;1.64;100.00;96595.66;5051250;28;20047;-68
2022/11/25 02:39:18;;;;;;;9.82;5.35;;;;;;;1.75;100.00;96592.66;5046420;28;20126;-68
2022/11/25 02:41:48;;;;;;;9.75;5.78;;;;;;;1.62;100.00;96599.75;5029615;28;20060;-70
2022/11/25 02:44:14;;;;;;;11.40;5.03;;;;;;;1.65;100.00;96597.22;5020257;28;20417;-69
2022/11/25 02:46:39;;;;;;;24.10;7.60;;;;;;;1.92;100.00;96596.22;5039793;28;20049;-67
2022/11/25 02:49:05;;;;;;;18.38;6.22;;;;;;;1.86;100.00;96596.69;5034852;28;20041;-66
2022/11/25 02:51:31;;;;;;;17.13;4.65;;;;;;;1.71;100.00;96605.97;5022456;28;20052;-69
2022/11/25 02:53:58;;;;;;;17.85;7.38;;;;;;;1.82;100.00;96604.63;5039759;28;20046;-68
2022/11/25 02:56:31;;;;;;;6.85;4.28;;;;;;;1.81;100.00;96604.91;5012877;28;20365;-69
2022/11/25 02:58:57;;;;;;;10.73;5.13;;;;;;;1.85;100.00;96603.97;5036582;28;20091;-69
2022/11/25 03:01:22;;;;;;;8.00;4.50;;;;;;;1.99;100.00;96619.28;5039473;28;20057;-68
2022/11/25 03:03:48;;;;;;;9.60;4.63;;;;;;;2.00;100.00;96620.84;5044281;28;20075;-68
2022/11/25 03:06:13;;;;;;;7.35;4.18;;;;;;;1.82;100.00;96618.13;5031549;28;20044;-69
2022/11/25 03:08:39;;;;;;;7.15;4.55;;;;;;;1.73;100.00;96614.59;5047258;28;20041;-70
2022/11/25 03:11:05;;;;;;;15.15;5.07;;;;;;;1.65;100.00;96623.44;5037977;28;20509;-67
2022/11/25 03:13:30;;;;;;;9.35;4.57;;;;;;;1.55;100.00;96619.09;5029574;28;20064;-69
2022/11/25 03:15:56;;;;;;;7.03;4.40;;;;;;;1.26;100.00;96614.97;5043454;28;20080;-70
2022/11/25 03:18:21;;;;;;;10.60;5.53;;;;;;;1.10;100.00;96608.38;5039144;28;21298;-68
2022/11/25 03:20:51;;;;;;;7.13;4.95;;;;;;;1.05;100.00;96605.78;5047329;28;20124;-68
2022/11/25 03:23:16;;;;;;;;;;;;;;;1.04;100.00;96604.97;5042514;28;20044;-68
2022/11/25 03:25:42;;;;;;;9.47;5.07;;;;;;;1.07;100.00;96611.69;5031651;28;19916;-68
2022/11/25 03:28:07;;;;;;;8.25;5.20;;;;;;;1.05;100.00;96603.09;5029479;28;20284;-67
2022/11/25 03:30:33;;;;;;;12.40;5.03;;;;;;;1.06;100.00;96599.28;5047947;28;20045;-70
2022/11/25 03:32:58;;;;;;;9.77;5.88;;;;;;;1.02;100.00;96592.91;5047187;28;20397;-69
2022/11/25 03:35:23;;;;;;;8.40;4.78;;;;;;;0.91;100.00;96597.75;5048508;28;20510;-70
2022/11/25 03:37:49;;;;;;;8.75;4.35;;;;;;;0.88;100.00;96591.09;5044611;28;20036;-70
2022/11/25 03:40:15;;;;;;;5.93;4.03;;;;;;;0.92;100.00;96608.25;5041248;28;20060;-69
2022/11/25 03:42:41;;;;;;;6.63;4.07;;;;;;;1.14;100.00;96612.03;5045930;28;20064;-68
2022/11/25 03:45:09;;;;;;;5.28;3.63;;;;;;;1.20;100.00;96612.72;5041286;28;20041;-68
2022/11/25 03:47:35;;;;;;;7.32;3.58;;;;;;;1.28;100.00;96620.84;5045728;28;20098;-70
2022/11/25 03:50:00;;;;;;;6.00;3.47;;;;;;;1.34;100.00;96621.53;5046341;28;20053;-69
2022/11/25 03:52:25;;;;;;;5.60;3.40;;;;;;;1.49;100.00;96620.31;5037027;28;20106;-68
2022/11/25 03:54:51;;;;;;;7.55;3.65;;;;;;;1.52;100.00;96623.22;5046828;28;20650;-69
2022/11/25 03:57:16;;;;;;;5.53;3.33;;;;;;;1.51;100.00;96621.63;5036165;28;20140;-69
2022/11/25 03:59:42;;;;;;;6.93;3.95;;;;;;;1.58;100.00;96621.16;5042784;28;20056;-69
2022/11/25 04:02:07;;;;;;;9.05;3.33;;;;;;;1.45;100.00;96630.16;5041315;28;20136;-69
2022/11/25 04:04:33;;;;;;;5.38;3.40;;;;;;;1.41;100.00;96632.69;5051836;28;20060;-70
2022/11/25 04:06:58;;;;;;;4.55;3.42;;;;;;;1.46;100.00;96639.84;5054310;28;20048;-69
2022/11/25 04:09:24;;;;;;;10.30;4.85;;;;;;;1.55;100.00;96639.88;5043141;28;20527;-67
2022/11/25 04:14:35;;;;;;;7.40;4.15;;;;;;;1.44;100.00;96634.78;5042747;28;20037;-69
2022/11/25 04:17:00;;;;;;;5.05;3.33;;;;;;;1.35;100.00;96631.19;5042680;28;20079;-68
2022/11/25 04:19:26;;;;;;;8.80;4.07;;;;;;;1.34;100.00;96635.00;5038277;28;20486;-69
2022/11/25 04:21:52;;;;;;;9.30;4.93;;;;;;;1.45;100.00;96622.84;5043031;28;20056;-68
2022/11/25 04:24:18;;;;;;;6.97;4.18;;;;;;;1.34;100.00;96616.13;5017131;28;20076;-69
2022/11/25 04:26:43;;;;;;;10.50;4.90;;;;;;;0.84;100.00;96625.13;5039323;28;20478;-69
2022/11/25 04:29:09;;;;;;;8.32;4.50;;;;;;;0.65;100.00;96611.03;5037587;28;20098;-70
2022/11/25 04:31:36;;;;;;;6.15;4.38;;;;;;;0.69;100.00;96618.22;5040253;28;20055;-70
2022/11/25 04:34:02;;;;;;;10.05;4.25;;;;;;;0.76;100.00;96623.97;5041041;28;20045;-70
2022/11/25 04:36:28;;;;;;;7.55;4.50;;;;;;;0.90;100.00;96629.31;5040738;28;20107;-70
2022/11/25 04:38:53;;;;;;;7.00;3.88;;;;;;;1.11;100.00;96628.84;5042804;28;20049;-68
2022/11/25 04:41:18;;;;;;;6.60;3.72;;;;;;;1.29;100.00;96625.13;5036522;28;20041;-69
2022/11/25 04:43:44;;;;;;;6.50;3.83;;;;;;;1.30;100.00;96621.34;5042922;28;20063;-67
2022/11/25 04:46:16;;;;;;;6.25;3.80;;;;;;;1.26;100.00;96624.94;5037245;28;20206;-67
2022/11/25 04:48:41;;;;;;;6.18;3.70;;;;;;;1.23;100.00;96639.88;5043504;28;20037;-68
2022/11/25 04:51:06;;;;;;;7.55;4.28;;;;;;;1.28;100.00;96639.75;5048228;28;20133;-69
2022/11/25 04:53:32;;;;;;;10.13;4.15;;;;;;;1.51;100.00;96635.13;5052936;28;20045;-68
2022/11/25 04:55:57;;;;;;;7.07;3.80;;;;;;;1.67;100.00;96645.50;5049279;28;20129;-67
2022/11/25 05:01:06;;;;;;;5.55;3.65;;;;;;;1.79;100.00;96653.84;5036612;28;20055;-68
2022/11/25 05:03:32;;;;;;;8.68;3.97;;;;;;;1.87;100.00;96642.28;5048411;28;20123;-68
2022/11/25 05:05:57;;;;;;;8.10;4.43;;;;;;;1.96;100.00;96639.59;5032909;28;20044;-68
2022/11/25 05:08:23;;;;;;;11.63;5.70;;;;;;;1.98;100.00;96637.41;5039994;28;20759;-68
2022/11/25 05:10:48;;;;;;;7.65;4.35;;;;;;;2.04;100.00;96641.53;5044198;28;20449;-68
2022/11/25 05:13:13;;;;;;;11.45;5.45;;;;;;;2.11;100.00;96646.50;5020131;28;20084;-67
2022/11/25 05:15:39;;;;;;;7.43;4.57;;;;;;;2.16;100.00;96640.16;5041241;28;20490;-67
2022/11/25 05:18:04;;;;;;;5.40;3.85;;;;;;;2.18;100.00;96633.34;5038189;28;20033;-68
2022/11/25 05:20:29;;;;;;;5.13;3.78;;;;;;;2.23;100.00;96621.56;5024270;28;20052;-69
2022/11/25 05:22:55;;;;;;;6.95;3.78;;;;;;;2.20;100.00;96628.41;5040994;28;20037;-70
2022/11/25 05:25:20;;;;;;;7.70;3.40;;;;;;;2.19;100.00;96634.13;5019013;28;20414;-69
2022/11/25 05:27:45;;;;;;;7.78;3.42;;;;;;;2.19;100.00;96642.22;5039727;28;20041;-67
2022/11/25 05:30:12;;;;;;;8.80;4.00;;;;;;;2.24;100.00;96637.47;5035458;28;20041;-68
2022/11/25 05:32:39;;;;;;;7.53;4.70;;;;;;;2.22;100.00;96642.41;5041802;28;20836;-68
2022/11/25 05:35:05;;;;;;;9.27;4.82;;;;;;;2.08;100.00;96645.22;5036540;28;20144;-68
2022/11/25 05:37:30;;;;;;;10.73;5.68;;;;;;;1.95;100.00;96648.81;5041254;28;20108;-67
2022/11/25 05:39:55;;;;;;;12.05;5.65;;;;;;;2.00;100.00;96653.28;5041922;28;20159;-68
2022/11/25 05:42:21;;;;;;;14.15;6.50;;;;;;;2.08;100.00;96653.31;5035235;28;20533;-66
2022/11/25 05:44:46;;;;;;;10.30;5.43;;;;;;;2.28;100.00;96660.06;5041522;28;20048;-67
2022/11/25 05:47:11;;;;;;;8.40;4.60;;;;;;;2.31;100.00;96652.44;5018382;28;20048;-68
2022/11/25 05:49:37;;;;;;;4.85;3.58;;;;;;;2.33;100.00;96655.63;5041821;28;20541;-68
2022/11/25 05:52:02;;;;;;;8.20;3.83;;;;;;;2.29;100.00;96656.25;5040842;28;20060;-71
2022/11/25 05:54:28;;;;;;;6.95;3.40;;;;;;;2.23;100.00;96654.81;5036066;28;20114;-69
2022/11/25 05:56:53;;;;;;;5.07;3.38;;;;;;;2.21;100.00;96654.31;5023046;28;20110;-68
2022/11/25 05:59:19;;;;;;;6.75;3.42;;;;;;;2.26;100.00;96654.16;5035389;28;20132;-70
2022/11/25 06:01:44;;;;;;;7.28;3.38;;;;;;;2.28;100.00;96660.06;5041001;28;20127;-70
2022/11/25 06:04:10;;;;;;;6.00;3.40;;;;;;;2.21;100.00;96657.00;5034703;28;20037;-68
2022/11/25 06:06:35;;;;;;;8.10;3.70;;;;;;;2.13;100.00;96654.31;5022482;28;20037;-68
2022/11/25 06:09:01;;;;;;;8.82;4.20;;;;;;;1.96;100.00;96658.50;5044519;28;20102;-69
2022/11/25 06:11:27;;;;;;;40.10;18.25;;;;;;;1.58;100.00;96653.56;5037846;28;20041;-68
2022/11/25 06:13:55;;;;;;;25.58;11.98;;;;;;;1.41;100.00;96661.56;5041927;28;20144;-68
2022/11/25 06:16:21;;;;;;;9.55;5.30;;;;;;;1.32;100.00;96665.00;5034024;28;20048;-68
2022/11/25 06:18:47;;;;;;;9.50;5.25;;;;;;;1.39;100.00;96661.06;5040908;28;20052;-68
2022/11/25 06:21:13;;;;;;;11.23;5.00;;;;;;;1.48;100.00;96653.84;5035067;28;20514;-69
2022/11/25 06:23:39;;;;;;;8.35;5.40;;;;;;;1.59;100.00;96654.38;5042445;28;20033;-70
2022/11/25 06:26:09;;;;;;;12.35;5.13;;;;;;;1.54;100.00;96655.28;5008620;28;20032;-68
2022/11/25 06:28:35;;;;;;;7.15;4.47;;;;;;;1.49;100.00;96653.50;5026638;28;20398;-68
2022/11/25 06:31:09;;;;;;;8.48;4.60;;;;;;;1.57;100.00;96653.88;5038891;28;20104;-67
2022/11/25 06:33:35;;;;;;;11.18;5.05;;;;;;;1.74;100.00;96658.56;5040400;28;20052;-67
2022/11/25 06:36:06;;;;;;;10.02;4.60;;;;;;;1.84;100.00;96656.41;5043940;28;20417;-67
2022/11/25 06:38:31;;;;;;;13.63;4.97;;;;;;;1.98;100.00;96660.91;5041211;28;20047;-67
2022/11/25 06:41:04;;;;;;;9.93;4.50;;;;;;;2.02;100.00;96662.69;5039977;28;20429;-67
2022/11/25 06:43:31;;;;;;;9.80;5.20;;;;;;;2.11;100.00;96662.72;5039604;28;20036;-66
2022/11/25 06:46:08;;;;;;;14.43;5.03;;;;;;;2.19;100.00;96671.97;5040123;28;20055;-66
2022/11/25 06:48:35;;;;;;;11.15;5.00;;;;;;;2.23;100.00;96668.31;5037703;28;20091;-66
2022/11/25 06:51:04;;;;;;;7.05;4.63;;;;;;;2.28;100.00;96686.28;5044168;28;20087;-67
2022/11/25 06:53:31;;;;;;;7.33;5.13;;;;;;;2.30;100.00;96681.38;5045057;28;20041;-67
2022/11/25 06:56:11;;;;;;;12.13;5.28;;;;;;;2.32;100.00;96683.75;5044220;28;20040;-66
2022/11/25 06:58:37;;;;;;;16.95;5.05;;;;;;;2.33;100.00;96688.84;5035184;28;20127;-67
2022/11/25 07:01:13;;;;;;;10.38;5.20;;;;;;;2.26;100.00;96700.09;5034222;28;20036;-67
2022/11/25 07:03:39;;;;;;;9.18;5.38;;;;;;;2.22;100.00;96701.06;5016188;28;20036;-67
2022/11/25 07:06:05;;;;;;;11.02;4.85;;;;;;;2.23;100.00;96702.63;5032912;28;20041;-67
2022/11/25 07:08:30;;;;;;;10.57;5.53;;;;;;;2.21;100.00;96702.94;5037349;28;20128;-65
2022/11/25 07:11:01;;;;;;;8.30;4.82;;;;;;;2.13;100.00;96711.84;5036006;28;20508;-66
2022/11/25 07:13:27;;;;;;;10.98;4.70;;;;;;;2.13;100.00;96717.25;5036523;28;20672;-66
2022/11/25 07:15:52;;;;;;;6.38;4.90;;;;;;;2.13;100.00;96711.03;5039111;28;20067;-66
2022/11/25 07:18:18;;;;;;;11.10;5.28;;;;;;;2.10;100.00;96713.25;5033511;28;20041;-66
2022/11/25 07:20:43;;;;;;;7.35;4.70;;;;;;;2.14;100.00;96718.81;5040442;28;20124;-66
2022/11/25 07:23:11;;;;;;;12.63;6.00;;;;;;;2.16;100.00;96723.91;5035090;28;20041;-66
2022/11/25 07:25:37;;;;;;;12.60;5.47;;;;;;;2.38;100.00;96721.16;5039702;28;20448;-65
2022/11/25 07:28:03;;;;;;;10.27;5.95;;;;;;;2.33;100.00;96715.09;5038417;28;20123;-68
2022/11/25 07:30:28;;;;;;;13.02;6.43;;;;;;;2.31;100.00;96725.44;5036735;28;20049;-66
2022/11/25 07:32:54;;;;;;;8.48;5.30;;;;;;;2.37;100.00;96724.94;5044778;28;20045;-67
2022/11/25 07:35:19;;;;;;;14.70;5.85;;;;;;;2.56;100.00;96723.91;5039241;28;20456;-66
2022/11/25 07:37:45;;;;;;;15.07;6.32;;;;;;;2.64;100.00;96733.94;5042753;28;20040;-66
2022/11/25 07:40:11;;;;;;;7.80;5.25;;;;;;;2.63;100.00;96733.16;5036128;28;20645;-66
2022/11/25 07:42:36;;;;;;;12.02;6.18;;;;;;;2.42;100.00;96734.84;5040173;28;20037;-67
2022/11/25 07:45:02;;;;;;;17.17;11.60;;;;;;;2.32;100.00;96743.22;5038388;28;20052;-66
2022/11/25 07:47:28;;;;;;;12.45;7.95;;;;;;;2.26;100.00;96737.16;5033883;28;20056;-67
2022/11/25 07:49:53;;;;;;;15.98;8.02;;;;;;;2.49;100.00;96743.28;5040244;28;20045;-65
2022/11/25 07:52:19;;;;;;;14.57;7.47;;;;;;;2.71;100.00;96744.31;5032684;28;20083;-65
2022/11/25 07:54:45;;;;;;;9.90;6.25;;;;;;;2.89;100.00;96751.34;5044024;28;20051;-67
2022/11/25 07:57:10;;;;;;;11.20;6.50;;;;;;;3.18;100.00;96750.75;5038769;28;20045;-67
2022/11/25 07:59:40;;;;;;;14.65;6.13;;;;;;;3.39;100.00;96759.06;5043091;28;20052;-66
2022/11/25 08:02:05;;;;;;;9.93;5.32;;;;;;;3.56;100.00;96757.44;5038508;28;20055;-64
2022/11/25 08:04:30;;;;;;;11.00;6.30;;;;;;;3.60;100.00;96761.09;5022762;28;20041;-67
2022/11/25 08:06:56;;;;;;;13.95;6.80;;;;;;;3.30;100.00;96754.75;5048824;28;20045;-67
2022/11/25 08:09:22;;;;;;;9.63;5.90;;;;;;;3.16;100.00;96763.03;5040855;28;20052;-67
2022/11/25 08:11:49;;;;;;;12.00;6.05;;;;;;;3.29;100.00;96758.56;5043168;28;20037;-66
2022/11/25 08:14:15;;;;;;;9.85;6.38;;;;;;;3.57;100.00;96767.97;5042803;28;20052;-66
2022/11/25 08:16:41;;;;;;;11.20;6.47;;;;;;;3.64;100.00;96770.22;5042245;28;20037;-66
2022/11/25 08:19:10;;;;;;;10.00;6.28;;;;;;;3.81;100.00;96772.09;5036017;28;20048;-66
2022/11/25 08:21:36;;;;;;;10.57;6.75;;;;;;;4.10;100.00;96773.31;5039553;28;20490;-66
2022/11/25 08:24:02;;;;;;;11.15;5.30;;;;;;;4.15;100.00;96778.56;5042058;28;20045;-66
2022/11/25 08:26:30;;;;;;;7.47;4.78;;;;;;;4.17;100.00;96773.63;5034574;28;20037;-66
2022/11/25 08:28:56;;;;;;;9.20;5.80;;;;;;;3.62;100.00;96778.66;5037840;28;20068;-66
2022/11/25 08:31:27;;;;;;;11.57;5.63;;;;;;;3.19;100.00;96765.09;5031668;28;20061;-66
2022/11/25 08:33:54;;;;;;;8.15;5.15;;;;;;;3.05;100.00;96781.47;5039850;28;20033;-66
2022/11/25 08:36:20;;;;;;;12.23;6.40;;;;;;;3.01;100.00;96781.31;5036188;28;20037;-66
2022/11/25 08:38:49;;;;;;;12.07;7.03;;;;;;;2.96;100.00;96773.31;5042019;28;20079;-67
2022/11/25 08:41:36;;;;;;;12.05;6.97;;;;;;;3.09;100.00;96770.81;5036068;28;20053;-67
2022/11/25 08:44:05;;;;;;;17.50;9.77;;;;;;;3.30;100.00;96771.78;5038967;28;20617;-67
2022/11/25 08:46:35;;;;;;;23.20;12.97;;;;;;;3.45;100.00;96779.44;5042271;28;20064;-67
2022/11/25 08:49:01;;;;;;;14.60;8.02;;;;;;;3.65;100.00;96777.19;5039610;28;20294;-67
2022/11/25 08:51:30;;;;;;;25.15;13.73;;;;;;;3.69;100.00;96777.34;5020132;28;20127;-66
2022/11/25 08:53:57;;;;;;;16.10;10.38;;;;;;;3.65;100.00;96785.31;5023916;28;20390;-67
2022/11/25 08:56:23;;;;;;;14.50;7.35;;;;;;;3.87;100.00;96786.28;5037364;28;20116;-67
2022/11/25 08:58:49;;;;;;;11.27;6.75;;;;;;;4.33;100.00;96792.88;5026582;28;20099;-67
2022/11/25 09:01:19;;;;;;;15.77;7.40;;;;;;;4.80;100.00;96787.44;5047305;28;20029;-67
2022/11/25 09:03:47;;;;;;;10.57;6.22;;;;;;;5.14;100.00;96788.38;5052061;28;20053;-67
2022/11/25 09:06:14;;;;;;;11.52;6.03;;;;;;;5.29;100.00;96792.41;5041627;28;20487;-66
2022/11/25 09:08:41;;;;;;;13.60;6.57;;;;;;;5.16;100.00;96799.69;5043351;28;20102;-67
2022/11/25 09:11:07;;;;;;;11.85;6.32;;;;;;;4.89;100.00;96799.03;5018831;28;20041;-65
2022/11/25 09:13:33;;;;;;;13.98;6.45;;;;;;;4.86;100.00;96802.44;5042325;28;20079;-67
2022/11/25 09:16:00;;;;;;;51.75;24.08;;;;;;;4.73;100.00;96809.63;5022988;28;20095;-67
2022/11/25 09:18:25;;;;;;;12.35;7.60;;;;;;;4.94;100.00;96792.63;5037463;28;20506;-67
2022/11/25 09:20:52;;;;;;;11.07;6.43;;;;;;;5.09;100.00;96811.06;5042170;28;20130;-67
2022/11/25 09:23:18;;;;;;;11.82;6.60;;;;;;;5.26;100.00;96814.84;5036746;28;20033;-68
2022/11/25 09:25:51;;;;;;;11.23;6.65;;;;;;;5.61;100.00;96822.72;5023554;28;20032;-67
2022/11/25 09:28:16;;;;;;;22.60;11.50;;;;;;;5.80;100.00;96817.63;5017067;28;20114;-67
2022/11/25 09:30:42;;;;;;;14.50;8.00;;;;;;;5.82;100.00;96814.59;5042213;28;20495;-68
2022/11/25 09:33:07;;;;;;;11.98;7.20;;;;;;;6.09;100.00;96822.19;5036509;28;20132;-66
2022/11/25 09:35:33;;;;;;;20.08;7.97;;;;;;;6.37;100.00;96820.81;5039418;28;20041;-68
2022/11/25 09:37:58;;;;;;;12.38;6.05;;;;;;;6.45;100.00;96823.44;5050454;28;20109;-68
2022/11/25 09:40:32;;;;;;;10.52;6.15;;;;;;;5.86;100.00;96827.16;5035656;28;20045;-67
2022/11/25 09:46:40;;;;;;;12.18;5.70;;;;;;;5.88;100.00;96833.06;5035042;28;20138;-67
2022/11/25 09:49:20;;;;;;;14.60;5.70;;;;;;;6.38;100.00;96836.00;5038157;28;20807;-66
2022/11/25 09:52:00;;;;;;;12.07;6.53;;;;;;;6.56;100.00;96834.69;5052386;28;20171;-67
2022/11/25 09:54:33;;;;;;;17.05;7.50;;;;;;;6.70;100.00;96834.38;5035817;28;20037;-66
2022/11/25 09:57:28;;;;;;;13.63;6.35;;;;;;;6.82;100.00;96839.03;5041046;28;20045;-66
2022/11/25 10:00:11;;;;;;;10.30;5.63;;;;;;;6.76;100.00;96840.41;5013560;28;20102;-66
2022/11/25 10:02:42;;;;;;;14.52;7.53;;;;;;;7.02;100.00;96853.69;5045584;28;20037;-68
2022/11/25 10:05:17;;;;;;;11.55;5.60;;;;;;;7.15;100.00;96849.03;5042369;28;20063;-67
2022/11/25 10:07:47;;;;;;;25.23;13.75;;;;;;;7.18;100.00;96842.91;5043403;28;20047;-66
2022/11/25 10:10:24;;;;;;;16.88;7.50;;;;;;;7.21;100.00;96853.94;5035405;28;20072;-66
2022/11/25 10:12:54;;;;;;;14.82;6.35;;;;;;;7.43;100.00;96852.66;5040289;28;20068;-68
2022/11/25 10:15:26;;;;;;;19.63;7.68;;;;;;;7.51;100.00;96848.25;5039855;28;20041;-67
2022/11/25 10:17:56;;;;;;;18.63;7.15;;;;;;;7.55;100.00;96848.34;5048978;28;20106;-66
2022/11/25 10:20:36;;;;;;;20.08;7.30;;;;;;;7.76;100.00;96854.44;5042681;28;20581;-66
2022/11/25 10:23:09;;;;;;;;;;;;;;;7.99;100.00;96854.72;5040782;28;20410;-67
2022/11/25 10:25:52;;;;;;;15.00;6.15;;;;;;;8.33;98.92;96858.00;5038146;28;19924;-66
2022/11/25 10:28:21;;;;;;;13.55;6.72;;;;;;;8.21;100.00;96858.03;5034666;28;20394;-67
2022/11/25 10:31:02;;;;;;;17.63;7.85;;;;;;;8.10;99.75;96857.75;5040066;28;20071;-68
2022/11/25 10:33:52;;;;;;;11.98;7.22;;;;;;;7.98;100.00;96864.03;5036433;28;20044;-67
2022/11/25 10:36:29;;;;;;;12.57;6.68;;;;;;;8.03;100.00;96863.00;5034536;28;20051;-67
2022/11/25 10:39:13;;;;;;;14.40;7.32;;;;;;;7.90;100.00;96856.78;5021015;28;20056;-67
2022/11/25 10:41:51;;;;;;;18.63;8.50;;;;;;;7.75;100.00;96858.31;5036867;28;20090;-67
2022/11/25 10:44:27;;;;;;;13.68;7.63;;;;;;;7.92;100.00;96854.50;5016796;28;20029;-67
2022/11/25 10:47:20;;;;;;;17.70;7.93;;;;;;;7.82;100.00;96855.00;5037206;28;20032;-67
2022/11/25 10:50:04;;;;;;;13.77;7.57;;;;;;;7.64;100.00;96851.75;5035832;28;20048;-67
2022/11/25 10:52:35;;;;;;;17.98;8.52;;;;;;;7.44;100.00;96853.47;5037537;28;20048;-67
2022/11/25 10:55:11;;;;;;;15.27;9.05;;;;;;;7.39;100.00;96843.59;5039807;28;20036;-67
2022/11/25 10:57:37;;;;;;;20.23;9.18;;;;;;;7.40;100.00;96852.56;5038644;28;20072;-65
2022/11/25 11:00:04;;;;;;;18.13;9.73;;;;;;;7.32;100.00;96856.22;5037075;28;20072;-65
2022/11/25 11:02:33;;;;;;;13.75;8.57;;;;;;;7.30;100.00;96847.59;5016770;28;20044;-67
2022/11/25 11:05:24;;;;;;;13.15;7.90;;;;;;;7.40;100.00;96842.47;5038960;28;20037;-66
2022/11/25 11:08:12;;;;;;;16.77;7.95;;;;;;;7.57;100.00;96840.63;5034961;28;20037;-68
2022/11/25 11:10:38;;;;;;;13.95;7.35;;;;;;;7.45;100.00;96841.41;5040469;28;20033;-67
2022/11/25 11:13:25;;;;;;;13.40;7.70;;;;;;;7.13;100.00;96834.97;5016763;28;20041;-65
2022/11/25 11:15:52;;;;;;;13.73;8.20;;;;;;;7.24;100.00;96838.84;5020690;28;20119;-66
2022/11/25 11:18:39;;;;;;;13.77;8.40;;;;;;;6.72;100.00;96829.41;5033856;28;20129;-66
2022/11/25 11:21:22;;;;;;;16.92;9.90;;;;;;;6.69;100.00;96827.34;5034038;28;20152;-67
2022/11/25 11:23:51;;;;;;;15.85;10.07;;;;;;;6.76;100.00;96826.78;5019799;28;20048;-66
2022/11/25 11:26:37;;;;;;;16.55;9.07;;;;;;;6.95;100.00;96816.16;5034486;28;20033;-66
2022/11/25 11:29:20;;;;;;;13.80;9.10;;;;;;;6.92;100.00;96814.09;5041285;28;20041;-66
2022/11/25 11:31:59;;;;;;;13.00;9.20;;;;;;;6.86;100.00;96815.44;5043743;28;20084;-66
2022/11/25 11:34:51;;;;;;;19.90;14.93;;;;;;;6.72;100.00;96812.25;5039134;28;20091;-65
2022/11/25 11:37:19;;;;;;;20.60;10.93;;;;;;;6.63;100.00;96807.72;5038120;28;20041;-65
2022/11/25 11:39:47;;;;;;;28.45;11.85;;;;;;;7.05;100.00;96804.78;5044042;28;20049;-65
2022/11/25 11:42:26;;;;;;;39.20;13.25;;;;;;;7.90;100.00;96799.50;5038611;28;20048;-65
2022/11/25 11:44:54;;;;;;;19.67;12.30;;;;;;;8.24;100.00;96791.88;5044187;28;20912;-66
2022/11/25 11:47:56;;;;;;;20.98;10.80;;;;;;;9.09;100.00;96792.50;5037327;28;20033;-66